createdAt,value
2022-11-12T00:01:07.055Z,102965.72
2022-11-12T00:03:34.167Z,102965.66
2022-11-12T00:06:01.187Z,102963.84
2022-11-12T00:08:28.821Z,102960.25
2022-11-12T00:10:56.177Z,102967.97
2022-11-12T00:13:23.206Z,102966.19
2022-11-12T00:15:50.253Z,102962.59
2022-11-12T00:18:17.381Z,102965.13
2022-11-12T00:20:45.031Z,102963.34
2022-11-12T00:23:12.097Z,102965.06
2022-11-12T00:25:39.384Z,102960.66
2022-11-12T00:28:10.098Z,102969.38
2022-11-12T00:30:41.376Z,102964.97
2022-11-12T00:33:08.642Z,102967.59
2022-11-12T00:35:38.759Z,102968.28
2022-11-12T00:38:07.770Z,102964.84
2022-11-12T00:40:42.241Z,102957.75
2022-11-12T00:43:09.254Z,102967.31
2022-11-12T00:45:36.229Z,102960.22
2022-11-12T00:48:03.347Z,102958.41
2022-11-12T00:50:30.354Z,102960.91
2022-11-12T00:52:57.345Z,102966.13
2022-11-12T00:55:24.638Z,102970.38
2022-11-12T00:57:51.916Z,102969.56
2022-11-12T01:00:19.992Z,102962.47
2022-11-12T01:02:50.941Z,102952.84
2022-11-12T01:05:19.990Z,102958.06
2022-11-12T01:07:51.773Z,102955.38
2022-11-12T01:10:23.118Z,102950.16
2022-11-12T01:12:50.106Z,102944.94
2022-11-12T01:15:17.180Z,102939.53
2022-11-12T01:17:44.154Z,102932.50
2022-11-12T01:20:11.541Z,102937.72
2022-11-12T01:22:38.530Z,102942.06
2022-11-12T01:25:06.326Z,102939.28
2022-11-12T01:27:34.256Z,102934.88
2022-11-12T01:30:01.240Z,102938.31
2022-11-12T01:32:28.430Z,102930.38
2022-11-12T01:34:55.447Z,102925.06
2022-11-12T01:37:22.392Z,102927.69
2022-11-12T01:39:49.515Z,102925.00
2022-11-12T01:42:16.474Z,102922.38
2022-11-12T01:44:46.619Z,102920.50
2022-11-12T01:47:34.180Z,102936.03
2022-11-12T01:50:24.066Z,102930.75
2022-11-12T01:53:01.565Z,102929.78
2022-11-12T01:55:36.170Z,102930.59
2022-11-12T01:58:11.811Z,102930.50
2022-11-12T02:00:40.720Z,102927.00
2022-11-12T02:03:23.028Z,102926.91
2022-11-12T02:05:59.387Z,102933.81
2022-11-12T02:08:28.354Z,102928.50
2022-11-12T02:10:55.647Z,102930.13
2022-11-12T02:13:41.647Z,102932.66
2022-11-12T02:16:10.833Z,102936.16
2022-11-12T02:18:37.745Z,102934.38
2022-11-12T02:21:09.326Z,102936.91
2022-11-12T02:23:37.282Z,102935.88
2022-11-12T02:26:04.368Z,102936.72
2022-11-12T02:28:32.905Z,102927.16
2022-11-12T02:30:59.893Z,102934.19
2022-11-12T02:33:26.985Z,102938.41
2022-11-12T02:35:53.922Z,102947.06
2022-11-12T02:38:21.065Z,102936.53
2022-11-12T02:40:48.259Z,102938.25
2022-11-12T02:43:15.749Z,102927.75
2022-11-12T02:45:42.773Z,102914.59
2022-11-12T02:48:11.238Z,102912.78
2022-11-12T02:50:39.860Z,102920.63
2022-11-12T02:53:06.799Z,102918.75
2022-11-12T02:55:33.844Z,102925.66
2022-11-12T02:58:01.281Z,102920.44
2022-11-12T03:00:28.295Z,102923.88
2022-11-12T03:03:01.860Z,102922.97
2022-11-12T03:05:32.292Z,102920.28
2022-11-12T03:08:07.133Z,102922.78
2022-11-12T03:10:36.664Z,102923.59
2022-11-12T03:13:03.758Z,102926.84
2022-11-12T03:15:31.039Z,102913.81
2022-11-12T03:17:59.363Z,102924.31
2022-11-12T03:20:27.321Z,102931.25
2022-11-12T03:23:05.595Z,102924.31
2022-11-12T03:25:32.699Z,102926.19
2022-11-12T03:28:05.834Z,102928.81
2022-11-12T03:30:37.243Z,102931.41
2022-11-12T03:33:05.730Z,102929.69
2022-11-12T03:35:33.885Z,102940.25
2022-11-12T03:38:01.847Z,102934.91
2022-11-12T03:40:29.464Z,102943.75
2022-11-12T03:42:56.898Z,102931.53
2022-11-12T03:45:27.086Z,102930.59
2022-11-12T03:47:57.166Z,102938.41
2022-11-12T03:50:28.279Z,102927.91
2022-11-12T03:52:58.503Z,102934.91
2022-11-12T03:55:29.052Z,102935.81
2022-11-12T03:57:57.169Z,102927.09
2022-11-12T04:00:27.108Z,102920.00
2022-11-12T04:02:54.426Z,102924.31
2022-11-12T04:05:40.755Z,102920.00
2022-11-12T04:08:33.487Z,102914.78
2022-11-12T04:11:01.164Z,102918.22
2022-11-12T04:13:28.881Z,102908.59
2022-11-12T04:16:28.962Z,102905.00
2022-11-12T04:19:17.854Z,102909.19
2022-11-12T04:22:01.191Z,102911.72
2022-11-12T04:24:54.842Z,102909.03
2022-11-12T04:27:28.851Z,102901.94
2022-11-12T04:30:15.082Z,102906.16
2022-11-12T04:33:02.320Z,102903.53
2022-11-12T04:35:29.337Z,102904.34
2022-11-12T04:37:56.683Z,102897.25
2022-11-12T04:40:45.293Z,102899.88
2022-11-12T04:43:35.590Z,102905.00
2022-11-12T04:46:05.122Z,102896.19
2022-11-12T04:48:32.121Z,102890.09
2022-11-12T04:51:03.038Z,102890.88
2022-11-12T04:53:30.916Z,102887.28
2022-11-12T04:55:59.890Z,102890.78
2022-11-12T04:58:27.056Z,102891.59
2022-11-12T05:00:54.853Z,102893.22
2022-11-12T05:03:21.959Z,102894.94
2022-11-12T05:05:48.954Z,102896.63
2022-11-12T05:08:16.035Z,102887.84
2022-11-12T05:10:44.437Z,102888.63
2022-11-12T05:13:11.376Z,102892.13
2022-11-12T05:15:38.390Z,102883.31
2022-11-12T05:18:05.447Z,102883.31
2022-11-12T05:20:32.447Z,102877.22
2022-11-12T05:23:06.781Z,102878.03
2022-11-12T05:25:36.100Z,102876.25
2022-11-12T05:28:03.176Z,102874.44
2022-11-12T05:30:30.402Z,102872.66
2022-11-12T05:32:57.486Z,102876.97
2022-11-12T05:35:24.458Z,102869.16
2022-11-12T05:37:51.449Z,102876.06
2022-11-12T05:40:18.424Z,102873.47
2022-11-12T05:42:45.772Z,102873.47
2022-11-12T05:45:12.927Z,102877.75
2022-11-12T05:47:40.271Z,102868.13
2022-11-12T05:50:08.188Z,102868.06
2022-11-12T05:52:35.244Z,102866.16
2022-11-12T05:55:02.163Z,102862.66
2022-11-12T05:57:29.159Z,102862.66
2022-11-12T05:59:56.227Z,102859.16
2022-11-12T06:02:23.459Z,102858.34
2022-11-12T06:04:50.479Z,102864.38
2022-11-12T06:07:17.479Z,102861.78
2022-11-12T06:09:44.476Z,102863.41
2022-11-12T06:12:11.443Z,102864.19
2022-11-12T06:14:38.435Z,102872.81
2022-11-12T06:17:05.375Z,102871.91
2022-11-12T06:19:32.433Z,102873.63
2022-11-12T06:21:59.401Z,102873.44
2022-11-12T06:24:30.657Z,102870.75
2022-11-12T06:27:00.777Z,102869.75
2022-11-12T06:29:28.040Z,102882.75
2022-11-12T06:31:54.965Z,102879.25
2022-11-12T06:34:21.966Z,102874.88
2022-11-12T06:36:49.301Z,102893.09
2022-11-12T06:39:16.259Z,102883.50
2022-11-12T06:41:43.234Z,102883.50
2022-11-12T06:44:10.370Z,102887.00
2022-11-12T06:46:37.385Z,102892.13
2022-11-12T06:49:04.335Z,102884.28
2022-11-12T06:51:31.427Z,102883.41
2022-11-12T06:53:58.364Z,102886.19
2022-11-12T06:56:25.478Z,102888.78
2022-11-12T06:58:52.530Z,102888.78
2022-11-12T07:01:19.739Z,102888.88
2022-11-12T07:03:46.839Z,102896.00
2022-11-12T07:06:19.346Z,102890.88
2022-11-12T07:08:50.634Z,102887.63
2022-11-12T07:11:19.722Z,102889.53
2022-11-12T07:13:47.644Z,102894.84
2022-11-12T07:16:18.674Z,102887.19
2022-11-12T07:18:47.861Z,102891.78
2022-11-12T07:21:20.876Z,102888.38
2022-11-12T07:23:48.299Z,102895.47
2022-11-12T07:26:22.101Z,102899.25
2022-11-12T07:28:51.263Z,102896.72
2022-11-12T07:31:20.286Z,102896.97
2022-11-12T07:33:48.989Z,102907.69
2022-11-12T07:36:19.159Z,102898.25
2022-11-12T07:38:46.833Z,102902.94
2022-11-12T07:41:17.648Z,102907.50
2022-11-12T07:43:47.330Z,102910.47
2022-11-12T07:46:27.906Z,102909.03
2022-11-12T07:48:56.219Z,102907.50
2022-11-12T07:51:29.220Z,102908.84
2022-11-12T07:54:00.032Z,102912.63
2022-11-12T07:56:28.510Z,102912.03
2022-11-12T07:58:55.774Z,102911.44
2022-11-12T08:01:37.616Z,102905.66
2022-11-12T08:04:10.139Z,102916.50
2022-11-12T08:06:37.961Z,102915.88
2022-11-12T08:09:07.626Z,102927.56
2022-11-12T08:11:35.330Z,102926.38
2022-11-12T08:14:03.159Z,102916.34
2022-11-12T08:16:30.286Z,102923.88
2022-11-12T08:18:57.349Z,102921.88
2022-11-12T08:21:24.667Z,102923.38
2022-11-12T08:23:52.034Z,102924.75
2022-11-12T08:26:20.960Z,102922.56
2022-11-12T08:28:48.294Z,102930.00
2022-11-12T08:31:22.223Z,102929.31
2022-11-12T08:33:50.617Z,102931.53
2022-11-12T08:36:18.706Z,102926.84
2022-11-12T08:38:46.398Z,102929.22
2022-11-12T08:41:14.977Z,102936.78
2022-11-12T08:43:42.716Z,102930.84
2022-11-12T08:46:10.589Z,102938.47
2022-11-12T08:48:40.074Z,102939.69
2022-11-12T08:51:08.351Z,102941.66
2022-11-12T08:53:35.743Z,102946.72
2022-11-12T08:56:02.907Z,102941.16
2022-11-12T08:58:30.402Z,102935.34
2022-11-12T09:01:03.751Z,102940.91
2022-11-12T09:03:30.806Z,102936.09
2022-11-12T09:05:58.007Z,102938.19
2022-11-12T09:08:27.904Z,102939.50
2022-11-12T09:10:57.883Z,102941.59
2022-11-12T09:13:24.990Z,102939.34
2022-11-12T09:15:52.114Z,102940.59
2022-11-12T09:18:19.292Z,102938.38
2022-11-12T09:20:46.693Z,102937.97
2022-11-12T09:23:17.990Z,102942.81
2022-11-12T09:25:45.305Z,102931.94
2022-11-12T09:28:15.997Z,102933.97
2022-11-12T09:30:49.387Z,102936.00
2022-11-12T09:33:20.660Z,102934.66
2022-11-12T09:35:48.613Z,102931.34
2022-11-12T09:38:16.584Z,102936.72
2022-11-12T09:40:52.375Z,102933.53
2022-11-12T09:43:25.362Z,102940.69
2022-11-12T09:46:21.504Z,102933.03
2022-11-12T09:48:51.922Z,102931.56
2022-11-12T09:51:39.921Z,102932.63
2022-11-12T09:54:31.168Z,102933.00
2022-11-12T09:56:58.461Z,102928.94
2022-11-12T09:59:31.803Z,102924.94
2022-11-12T10:02:34.298Z,102928.97
2022-11-12T10:05:25.879Z,102931.28
2022-11-12T10:08:17.677Z,102925.53
2022-11-12T10:10:57.274Z,102920.69
2022-11-12T10:13:58.630Z,102914.13
2022-11-12T10:16:42.840Z,102918.13
2022-11-12T10:19:37.232Z,102923.88
2022-11-12T10:22:58.485Z,102919.06
2022-11-12T10:25:26.051Z,102922.94
2022-11-12T10:27:55.954Z,102914.47
2022-11-12T10:30:25.403Z,102927.94
2022-11-12T10:32:53.348Z,102922.91
2022-11-12T10:35:23.680Z,102923.25
2022-11-12T10:38:06.733Z,102909.50
2022-11-12T10:40:42.440Z,102913.34
2022-11-12T10:43:18.402Z,102909.25
2022-11-12T10:45:48.348Z,102906.91
2022-11-12T10:48:32.602Z,102901.84
2022-11-12T10:51:00.812Z,102907.38
2022-11-12T10:53:40.303Z,102902.38
2022-11-12T10:56:32.690Z,102910.59
2022-11-12T10:59:16.767Z,102897.69
2022-11-12T11:01:54.923Z,102893.44
2022-11-12T11:04:40.451Z,102892.78
2022-11-12T11:07:26.345Z,102890.34
2022-11-12T11:10:00.828Z,102891.47
2022-11-12T11:12:34.104Z,102889.09
2022-11-12T11:15:16.215Z,102891.94
2022-11-12T11:17:43.193Z,102889.41
2022-11-12T11:20:44.307Z,102895.69
2022-11-12T11:23:29.049Z,102885.97
2022-11-12T11:26:06.822Z,102885.97
2022-11-12T11:28:46.251Z,102878.13
2022-11-12T11:31:44.556Z,102872.94
2022-11-12T11:34:29.597Z,102885.41
2022-11-12T11:37:04.527Z,102880.28
2022-11-12T11:40:24.721Z,102869.06
2022-11-12T11:43:22.066Z,102868.38
2022-11-12T11:46:00.854Z,102860.56
2022-11-12T11:48:48.869Z,102865.13
2022-11-12T11:51:47.480Z,102854.75
2022-11-12T11:55:10.626Z,102849.53
2022-11-12T11:58:09.419Z,102855.00
2022-11-12T12:01:11.483Z,102859.47
2022-11-12T12:04:25.005Z,102848.19
2022-11-12T12:07:14.044Z,102844.81
2022-11-12T12:09:50.575Z,102838.75
2022-11-12T12:12:39.174Z,102832.75
2022-11-12T12:16:05.126Z,102837.25
2022-11-12T12:19:05.670Z,102819.81
2022-11-12T12:21:39.065Z,102820.88
2022-11-12T12:24:25.373Z,102815.78
2022-11-12T12:27:25.265Z,102800.00
2022-11-12T12:30:00.723Z,102798.38
2022-11-12T12:32:47.464Z,102795.84
2022-11-12T12:35:44.657Z,102795.97
2022-11-12T12:38:27.812Z,102791.63
2022-11-12T12:41:51.669Z,102782.06
2022-11-12T12:44:18.756Z,102787.41
2022-11-12T12:46:58.963Z,102778.75
2022-11-12T12:49:36.981Z,102782.34
2022-11-12T12:52:04.150Z,102786.78
2022-11-12T12:54:42.884Z,102786.91
2022-11-12T12:57:39.820Z,102780.84
2022-11-12T13:00:38.260Z,102786.16
2022-11-12T13:03:06.397Z,102781.78
2022-11-12T13:05:40.222Z,102776.53
2022-11-12T13:08:13.834Z,102775.69
2022-11-12T13:10:44.234Z,102762.56
2022-11-12T13:13:20.917Z,102762.63
2022-11-12T13:15:54.914Z,102766.22
2022-11-12T13:18:40.346Z,102761.84
2022-11-12T13:21:13.874Z,102758.38
2022-11-12T13:24:07.669Z,102759.34
2022-11-12T13:26:54.790Z,102757.63
2022-11-12T13:29:24.660Z,102756.78
2022-11-12T13:32:29.745Z,102757.78
2022-11-12T13:35:12.011Z,102758.72
2022-11-12T13:38:15.740Z,102759.69
2022-11-12T13:41:17.662Z,102758.88
2022-11-12T13:43:49.947Z,102752.72
2022-11-12T13:46:33.385Z,102751.91
2022-11-12T13:49:10.442Z,102757.22
2022-11-12T13:51:53.182Z,102755.50
2022-11-12T13:54:38.489Z,102755.59
2022-11-12T13:57:15.864Z,102758.25
2022-11-12T13:59:42.875Z,102754.72
2022-11-12T14:02:27.021Z,102752.97
2022-11-12T14:04:54.796Z,102745.91
2022-11-12T14:07:44.221Z,102750.31
2022-11-12T14:11:13.221Z,102758.28
2022-11-12T14:13:51.005Z,102755.59
2022-11-12T14:16:59.288Z,102760.06
2022-11-12T14:19:59.530Z,102761.78
2022-11-12T14:22:35.427Z,102762.59
2022-11-12T14:25:04.393Z,102760.75
2022-11-12T14:27:33.894Z,102758.84
2022-11-12T14:30:15.447Z,102757.94
2022-11-12T14:32:46.302Z,102747.28
2022-11-12T14:35:27.357Z,102747.25
2022-11-12T14:38:05.793Z,102741.88
2022-11-12T14:40:37.641Z,102733.84
2022-11-12T14:43:06.063Z,102738.22
2022-11-12T14:45:35.464Z,102731.16
2022-11-12T14:48:02.817Z,102731.97
2022-11-12T14:50:37.502Z,102732.81
2022-11-12T14:53:42.183Z,102731.03
2022-11-12T14:56:35.635Z,102730.97
2022-11-12T14:59:04.727Z,102727.31
2022-11-12T15:02:14.606Z,102721.91
2022-11-12T15:04:25.977Z,102727.06
2022-11-12T15:06:56.276Z,102722.56
2022-11-12T15:09:38.636Z,102726.81
2022-11-12T15:12:11.400Z,102728.47
2022-11-12T15:14:38.783Z,102732.78
2022-11-12T15:17:06.105Z,102731.72
2022-11-12T15:19:35.177Z,102726.25
2022-11-12T15:22:04.294Z,102724.34
2022-11-12T15:24:32.692Z,102725.94
2022-11-12T15:27:22.173Z,102718.75
2022-11-12T15:29:49.327Z,102715.91
2022-11-12T15:32:16.168Z,102717.50
2022-11-12T15:34:43.375Z,102720.00
2022-11-12T15:37:33.979Z,102716.25
2022-11-12T15:40:11.401Z,102716.91
2022-11-12T15:42:41.708Z,102717.59
2022-11-12T15:45:20.074Z,102715.56
2022-11-12T15:47:48.200Z,102703.03
2022-11-12T15:50:23.360Z,102710.69
2022-11-12T15:52:51.321Z,102709.63
2022-11-12T15:55:19.026Z,102718.22
2022-11-12T15:57:53.106Z,102715.41
2022-11-12T16:00:23.594Z,102711.72
2022-11-12T16:03:04.148Z,102706.19
2022-11-12T16:05:31.123Z,102701.59
2022-11-12T16:07:58.076Z,102700.56
2022-11-12T16:10:25.610Z,102698.59
2022-11-12T16:12:57.279Z,102701.03
2022-11-12T16:15:25.777Z,102702.59
2022-11-12T16:17:55.992Z,102700.63
2022-11-12T16:20:35.444Z,102708.31
2022-11-12T16:23:02.502Z,102703.75
2022-11-12T16:25:33.316Z,102703.53
2022-11-12T16:28:01.947Z,102693.69
2022-11-12T16:30:34.031Z,102699.59
2022-11-12T16:33:01.970Z,102696.00
2022-11-12T16:35:33.077Z,102694.97
2022-11-12T16:38:00.297Z,102703.59
2022-11-12T16:40:30.357Z,102704.31
2022-11-12T16:42:57.509Z,102705.09
2022-11-12T16:45:33.807Z,102705.78
2022-11-12T16:48:00.868Z,102705.72
2022-11-12T16:50:28.560Z,102704.72
2022-11-12T16:52:55.807Z,102699.38
2022-11-12T16:55:22.955Z,102698.34
2022-11-12T16:57:49.919Z,102693.91
2022-11-12T17:00:19.114Z,102698.19
2022-11-12T17:02:49.474Z,102695.44
2022-11-12T17:05:23.330Z,102690.09
2022-11-12T17:07:55.693Z,102690.91
2022-11-12T17:10:24.035Z,102689.97
2022-11-12T17:12:52.780Z,102688.06
2022-11-12T17:15:20.345Z,102690.63
2022-11-12T17:17:47.608Z,102687.97
2022-11-12T17:20:14.607Z,102680.81
2022-11-12T17:22:41.620Z,102679.91
2022-11-12T17:25:09.321Z,102670.72
2022-11-12T17:27:36.518Z,102677.75
2022-11-12T17:30:05.084Z,102678.66
2022-11-12T17:32:32.746Z,102673.25
2022-11-12T17:34:59.893Z,102679.41
2022-11-12T17:37:26.863Z,102674.06
2022-11-12T17:39:57.224Z,102673.13
2022-11-12T17:42:24.239Z,102676.47
2022-11-12T17:44:51.273Z,102686.00
2022-11-12T17:47:18.484Z,102673.59
2022-11-12T17:49:45.514Z,102673.50
2022-11-12T17:52:12.698Z,102675.97
2022-11-12T17:54:39.708Z,102668.78
2022-11-12T17:57:06.886Z,102664.31
2022-11-12T17:59:33.879Z,102658.94
2022-11-12T18:02:01.110Z,102652.69
2022-11-12T18:04:31.038Z,102656.94
2022-11-12T18:06:58.418Z,102656.88
2022-11-12T18:09:25.719Z,102658.53
2022-11-12T18:11:54.843Z,102655.75
2022-11-12T18:14:23.153Z,102667.03
2022-11-12T18:16:51.207Z,102670.44
2022-11-12T18:19:18.348Z,102660.66
2022-11-12T18:21:45.352Z,102658.03
2022-11-12T18:24:15.539Z,102654.44
2022-11-12T18:26:44.175Z,102656.06
2022-11-12T18:29:13.124Z,102664.63
2022-11-12T18:31:40.756Z,102664.63
2022-11-12T18:34:15.014Z,102662.81
2022-11-12T18:36:42.150Z,102663.56
2022-11-12T18:39:09.565Z,102667.03
2022-11-12T18:41:36.830Z,102667.88
2022-11-12T18:44:04.072Z,102666.09
2022-11-12T18:46:31.077Z,102670.41
2022-11-12T18:48:58.072Z,102671.16
2022-11-12T18:51:25.001Z,102661.44
2022-11-12T18:53:52.146Z,102656.97
2022-11-12T18:56:20.820Z,102659.56
2022-11-12T18:58:49.047Z,102660.38
2022-11-12T19:01:22.244Z,102657.69
2022-11-12T19:03:54.714Z,102657.63
2022-11-12T19:06:22.910Z,102647.81
2022-11-12T19:08:50.307Z,102653.84
2022-11-12T19:11:21.715Z,102658.97
2022-11-12T19:13:54.503Z,102647.50
2022-11-12T19:16:23.307Z,102647.41
2022-11-12T19:18:51.936Z,102645.63
2022-11-12T19:21:25.637Z,102650.03
2022-11-12T19:23:57.183Z,102645.63
2022-11-12T19:26:24.496Z,102643.84
2022-11-12T19:28:52.301Z,102647.25
2022-11-12T19:31:23.642Z,102639.28
2022-11-12T19:33:51.119Z,102639.19
2022-11-12T19:36:25.884Z,102642.66
2022-11-12T19:38:58.157Z,102636.53
2022-11-12T19:41:26.002Z,102634.72
2022-11-12T19:43:53.363Z,102631.22
2022-11-12T19:46:21.009Z,102627.69
2022-11-12T19:48:48.222Z,102627.63
2022-11-12T19:51:15.294Z,102630.19
2022-11-12T19:53:46.839Z,102632.75
2022-11-12T19:56:17.279Z,102636.22
2022-11-12T19:58:49.272Z,102638.78
2022-11-12T20:01:19.047Z,102633.41
2022-11-12T20:03:46.414Z,102632.53
2022-11-12T20:06:21.115Z,102643.78
2022-11-12T20:08:48.300Z,102647.22
2022-11-12T20:11:18.996Z,102643.59
2022-11-12T20:13:46.442Z,102648.75
2022-11-12T20:16:19.610Z,102651.25
2022-11-12T20:18:56.713Z,102648.59
2022-11-12T20:21:24.571Z,102630.09
2022-11-12T20:23:51.774Z,102627.41
2022-11-12T20:26:19.091Z,102622.13
2022-11-12T20:28:46.235Z,102626.47
2022-11-12T20:31:19.952Z,102628.19
2022-11-12T20:33:49.989Z,102635.03
2022-11-12T20:36:20.568Z,102622.66
2022-11-12T20:38:50.449Z,102626.94
2022-11-12T20:41:26.054Z,102629.44
2022-11-12T20:43:55.186Z,102630.16
2022-11-12T20:46:22.267Z,102628.22
2022-11-12T20:48:49.655Z,102626.44
2022-11-12T20:51:24.638Z,102611.41
2022-11-12T20:54:00.088Z,102617.44
2022-11-12T20:56:30.053Z,102615.63
2022-11-12T20:58:59.293Z,102616.34
2022-11-12T21:01:29.078Z,102605.72
2022-11-12T21:03:57.994Z,102611.84
2022-11-12T21:06:28.306Z,102600.34
2022-11-12T21:09:00.008Z,102609.06
2022-11-12T21:11:27.154Z,102609.84
2022-11-12T21:13:54.869Z,102609.75
2022-11-12T21:16:22.162Z,102598.25
2022-11-12T21:18:49.380Z,102605.22
2022-11-12T21:21:19.331Z,102610.25
2022-11-12T21:23:50.376Z,102601.47
2022-11-12T21:26:20.917Z,102594.44
2022-11-12T21:28:51.960Z,102593.53
2022-11-12T21:31:21.871Z,102597.84
2022-11-12T21:34:00.692Z,102595.31
2022-11-12T21:36:28.779Z,102581.34
2022-11-12T21:38:56.050Z,102582.22
2022-11-12T21:41:27.910Z,102580.56
2022-11-12T21:43:55.479Z,102575.38
2022-11-12T21:46:29.469Z,102581.59
2022-11-12T21:48:58.233Z,102580.75
2022-11-12T21:51:33.289Z,102579.03
2022-11-12T21:54:07.738Z,102574.69
2022-11-12T21:56:35.179Z,102571.16
2022-11-12T21:59:04.115Z,102573.78
2022-11-12T22:01:34.340Z,102568.50
2022-11-12T22:04:06.865Z,102570.22
2022-11-12T22:06:38.455Z,102571.06
2022-11-12T22:09:05.846Z,102573.53
2022-11-12T22:11:32.967Z,102576.09
2022-11-12T22:14:00.025Z,102566.41
2022-11-12T22:16:31.594Z,102566.25
2022-11-12T22:18:59.845Z,102578.41
2022-11-12T22:21:33.098Z,102579.19
2022-11-12T22:24:04.513Z,102575.53
2022-11-12T22:26:31.634Z,102576.31
2022-11-12T22:29:03.394Z,102572.72
2022-11-12T22:31:32.701Z,102574.41
2022-11-12T22:34:02.054Z,102565.56
2022-11-12T22:36:31.431Z,102565.50
2022-11-12T22:38:58.772Z,102565.50
2022-11-12T22:41:29.929Z,102568.06
2022-11-12T22:44:00.261Z,102555.66
2022-11-12T22:46:33.796Z,102556.50
2022-11-12T22:49:02.438Z,102553.03
2022-11-12T22:51:32.170Z,102554.72
2022-11-12T22:54:02.910Z,102546.81
2022-11-12T22:56:33.306Z,102552.03
2022-11-12T22:59:03.615Z,102544.13
2022-11-12T23:01:34.348Z,102543.25
2022-11-12T23:04:05.713Z,102540.56
2022-11-12T23:06:33.291Z,102540.41
2022-11-12T23:09:01.051Z,102537.06
2022-11-12T23:11:28.678Z,102537.84
2022-11-12T23:13:56.241Z,102528.31
2022-11-12T23:16:30.633Z,102526.59
2022-11-12T23:18:59.471Z,102523.19
2022-11-12T23:21:29.574Z,102521.47
2022-11-12T23:23:58.543Z,102523.19
2022-11-12T23:26:33.497Z,102529.38
2022-11-12T23:29:01.784Z,102524.13
2022-11-12T23:31:31.320Z,102522.41
2022-11-12T23:34:00.348Z,102520.72
2022-11-12T23:36:29.111Z,102523.44
2022-11-12T23:38:57.420Z,102515.66
2022-11-12T23:41:27.111Z,102510.53
2022-11-12T23:43:56.259Z,102504.44
2022-11-12T23:46:27.664Z,102510.66
2022-11-12T23:48:56.212Z,102508.09
2022-11-12T23:51:23.665Z,102506.44
2022-11-12T23:53:50.698Z,102503.03
2022-11-12T23:56:19.834Z,102487.31
2022-11-12T23:58:47.475Z,102483.13
